Shields, Nebraska
Current Conditions -  °F | °C
As of 12:15 AM on Monday 22 Dec 2014 (Local Time) from KONL Reporting Station
Haze Haze  
Wind Chill: 31°   Ceiling: 700
Heat Index: 38°   Visibility: 5mi
Dew Point: 38°   Wind: 13mph
Humidity: 99%   Direction: 200°SSW
Pressure: 29.48"   Gusts: NA
Location:  42.6164°N, 98.6183°W
Report Text: KONL 220615Z AUTO 20011KT 5SM BR OVC007 04/04 A2948 RMK AO2 T00360035
Loading
Personal Weather Stations






























Interactive Weather Map New forecast layout! Learn more

10-Day Weather Forecast

Advertisements
Track Severe Weather on mobile